KBFF/BFF METAR and TAF weather

Enter ICAO airport designator
Station Type Date Time Source
KBFF METAR 2022/01/26 19:53 UTC NOAA

KBFF 261953Z AUTO 28018G25KT 10SM CLR 06/M09 A2995 RMK AO2 PK WND 28030/1922 SLP161 T00611089


Station Type Date Time Source
KBFF Decoded METAR 2022/01/26 19:53 UTC NOAA

SCOTTSBLUFF HEILIG FIELD, NE, United States (KBFF) 41-52N 103-36W 1203M
Jan 26, 2022 - 02:53 PM EST / 2022.01.26 1953 UTC
Wind: from the W (280 degrees) at 21 MPH (18 KT) gusting to 29 MPH (25 KT):0
Visibility: 10 mile(s):0
Sky conditions: clear
Temperature: 43.0 F (6.1 C)
Dew Point: 16.0 F (-8.9 C)
Relative Humidity: 33%
Pressure (altimeter): 29.95 in. Hg (1014 hPa)
ob: KBFF 261953Z AUTO 28018G25KT 10SM CLR 06/M09 A2995 RMK AO2 PK WND 28030/1922 SLP161 T00611089
cycle: 20

Station Type Date Time Source
KBFF TAF 2022/01/26 18:22 UTC NOAA

TAF KBFF 261720Z 2618/2718 31015G25KT P6SM BKN150
FM270100 30007KT P6SM BKN150
FM271200 32015G25KT P6SM BKN100

Example: see airport list